Time;durP1;ratioP1;P1;durP2;ratioP2;P2;SDS_P1;SDS_P2;PMS_P1;PMS_P2;Temp;Humidity;BMP_temperature;BMP_pressure;BME280_temperature;BME280_humidity;BME280_pressure;Samples;Min_cycle;Max_cycle;Signal;HPM_P1;HPM_P2
2022/06/18 00:00:43;;;;;;;2.53;1.60;;;25.00;50.90;;;;;;5048729;28;20036;-83
2022/06/18 00:03:10;;;;;;;2.80;1.70;;;25.10;50.80;;;;;;5041294;28;20035;-83
2022/06/18 00:05:37;;;;;;;2.88;1.70;;;25.10;50.90;;;;;;5046932;28;20417;-83
2022/06/18 00:08:09;;;;;;;3.70;1.58;;;25.20;51.00;;;;;;5050986;28;20500;-83
2022/06/18 00:10:35;;;;;;;2.40;1.60;;;25.20;51.20;;;;;;5055660;28;20734;-83
2022/06/18 00:15:58;;;;;;;2.38;1.50;;;25.20;51.90;;;;;;5053806;28;20028;-83
2022/06/18 00:18:25;;;;;;;2.20;1.70;;;25.30;50.90;;;;;;5040676;28;20059;-83
2022/06/18 00:20:51;;;;;;;1.98;1.65;;;25.30;51.10;;;;;;5056086;28;20058;-83
2022/06/18 00:23:17;;;;;;;2.33;1.60;;;25.30;51.10;;;;;;5041430;28;20049;-83
2022/06/18 00:25:46;;;;;;;2.38;1.90;;;25.30;51.10;;;;;;5039268;28;20397;-83
2022/06/18 00:28:15;;;;;;;2.45;1.80;;;25.30;51.30;;;;;;5030247;28;20151;-83
2022/06/18 00:30:42;;;;;;;1.70;1.60;;;25.40;51.60;;;;;;5050002;28;20037;-83
2022/06/18 00:33:08;;;;;;;2.03;1.83;;;25.40;51.40;;;;;;5045522;28;20028;-83
2022/06/18 00:35:34;;;;;;;2.00;1.70;;;25.40;51.40;;;;;;5040823;28;20301;-83
2022/06/18 00:38:03;;;;;;;1.73;1.60;;;25.30;51.40;;;;;;5051974;28;20691;-83
2022/06/18 00:40:41;;;;;;;1.95;1.80;;;25.30;51.40;;;;;;5038331;28;20041;-83
2022/06/18 00:43:29;;;;;;;1.90;1.60;;;25.30;52.60;;;;;;5041090;28;20040;-82
2022/06/18 00:46:02;;;;;;;1.77;1.60;;;25.30;52.50;;;;;;5054905;28;20432;-83
2022/06/18 00:48:37;;;;;;;1.63;1.52;;;25.30;52.10;;;;;;5045991;28;20247;-83
2022/06/18 00:51:11;;;;;;;2.65;1.90;;;25.20;52.10;;;;;;5040166;28;20408;-83
2022/06/18 00:54:29;;;;;;;2.05;1.60;;;25.10;52.50;;;;;;5050263;28;20115;-83
2022/06/18 00:57:07;;;;;;;1.67;1.50;;;25.10;52.90;;;;;;5032600;28;20505;-83
2022/06/18 00:59:39;;;;;;;2.38;1.50;;;25.00;52.30;;;;;;5030272;28;21026;-82
2022/06/18 01:02:06;;;;;;;1.90;1.50;;;25.00;52.30;;;;;;5041772;28;20033;-83
2022/06/18 01:04:34;;;;;;;1.92;1.50;;;24.90;52.00;;;;;;5046546;28;20700;-83
2022/06/18 01:07:06;;;;;;;1.80;1.60;;;24.90;52.50;;;;;;5038188;28;20456;-83
2022/06/18 01:09:34;;;;;;;2.10;1.60;;;24.80;52.70;;;;;;5054813;28;20156;-83
2022/06/18 01:12:00;;;;;;;2.28;1.70;;;24.70;52.40;;;;;;5051287;28;20051;-83
2022/06/18 01:14:27;;;;;;;2.53;1.90;;;24.70;52.50;;;;;;5033476;28;20040;-83
2022/06/18 01:16:57;;;;;;;2.67;1.80;;;24.70;52.70;;;;;;5038424;28;20047;-83
2022/06/18 01:19:38;;;;;;;2.83;1.70;;;24.70;53.00;;;;;;5037557;28;20270;-83
2022/06/18 01:22:37;;;;;;;2.60;1.58;;;24.70;53.20;;;;;;5040694;28;20399;-83
2022/06/18 01:25:06;;;;;;;3.08;1.80;;;24.60;53.70;;;;;;5042717;28;20409;-82
2022/06/18 01:27:34;;;;;;;2.67;1.70;;;24.60;52.60;;;;;;5039760;28;20059;-83
2022/06/18 01:29:59;;;;;;;2.85;1.80;;;24.60;52.90;;;;;;5045860;28;20043;-83
2022/06/18 01:32:25;;;;;;;2.60;1.73;;;24.60;53.00;;;;;;5029692;28;20033;-83
2022/06/18 01:34:52;;;;;;;2.20;1.90;;;24.60;53.00;;;;;;5058013;28;20652;-83
2022/06/18 01:37:19;;;;;;;2.75;1.80;;;24.60;53.10;;;;;;5040878;28;20289;-83
2022/06/18 01:39:47;;;;;;;2.88;1.70;;;24.60;53.10;;;;;;5046945;28;20041;-83
2022/06/18 01:42:22;;;;;;;2.60;1.83;;;24.60;53.20;;;;;;5042769;28;20272;-83
2022/06/18 01:45:00;;;;;;;3.53;1.77;;;24.60;54.00;;;;;;5049101;28;20033;-83
2022/06/18 01:47:39;;;;;;;2.00;1.80;;;24.60;54.10;;;;;;5020614;28;20068;-82
2022/06/18 01:50:11;;;;;;;3.53;1.88;;;24.60;54.40;;;;;;5046655;28;20495;-83
2022/06/18 01:52:43;;;;;;;2.38;1.80;;;24.60;53.40;;;;;;5033840;28;20590;-83
2022/06/18 01:55:15;;;;;;;2.30;1.77;;;24.50;53.80;;;;;;5043695;28;20128;-83
2022/06/18 01:57:47;;;;;;;2.10;1.70;;;24.40;53.90;;;;;;5053083;28;20485;-83
2022/06/18 02:00:17;;;;;;;2.28;1.73;;;24.40;54.20;;;;;;5048643;28;20123;-83
2022/06/18 02:02:44;;;;;;;2.72;1.83;;;24.30;54.00;;;;;;5037911;28;20500;-83
2022/06/18 02:05:11;;;;;;;2.83;1.90;;;24.20;53.80;;;;;;5051239;28;20040;-83
2022/06/18 02:07:37;;;;;;;2.70;1.80;;;24.10;54.00;;;;;;5053174;28;20031;-83
2022/06/18 02:10:12;;;;;;;2.70;1.80;;;24.10;54.10;;;;;;5039887;28;20036;-80
2022/06/18 02:12:40;;;;;;;3.00;1.67;;;23.90;54.90;;;;;;5048747;28;20031;-80
2022/06/18 02:15:17;;;;;;;3.10;1.77;;;23.90;54.50;;;;;;5046370;28;20028;-81
2022/06/18 02:17:44;;;;;;;2.40;1.73;;;23.80;54.70;;;;;;5026018;28;20025;-81
2022/06/18 02:20:10;;;;;;;2.13;1.92;;;23.80;54.80;;;;;;5053812;28;20052;-81
2022/06/18 02:22:41;;;;;;;2.95;1.80;;;23.80;54.90;;;;;;5038516;28;20934;-80
2022/06/18 02:25:07;;;;;;;3.70;1.80;;;23.70;55.30;;;;;;5038102;28;20068;-81
2022/06/18 02:27:34;;;;;;;2.60;2.00;;;23.70;55.00;;;;;;5055369;28;20032;-81
2022/06/18 02:30:00;;;;;;;2.83;1.75;;;23.70;55.20;;;;;;5043428;28;20555;-80
2022/06/18 02:32:54;;;;;;;1.83;1.67;;;23.70;55.40;;;;;;5029709;28;21041;-80
2022/06/18 02:35:20;;;;;;;2.40;1.70;;;23.60;56.50;;;;;;5055710;28;20433;-81
2022/06/18 02:37:45;;;;;;;2.63;2.10;;;23.60;55.40;;;;;;5052875;28;20028;-81
2022/06/18 02:40:22;;;;;;;1.97;1.60;;;23.60;55.40;;;;;;5039975;28;20321;-80
2022/06/18 02:42:51;;;;;;;2.30;2.00;;;23.60;56.30;;;;;;5052035;28;20035;-81
2022/06/18 02:45:19;;;;;;;3.15;1.90;;;23.50;55.60;;;;;;5034618;28;20391;-80
2022/06/18 02:47:45;;;;;;;3.03;1.90;;;23.50;56.30;;;;;;5055827;28;20029;-80
2022/06/18 02:50:14;;;;;;;4.68;2.03;;;23.50;55.70;;;;;;5015049;28;20076;-80
2022/06/18 02:52:50;;;;;;;4.55;2.00;;;23.40;56.00;;;;;;5049244;28;20031;-81
2022/06/18 02:55:24;;;;;;;2.70;1.92;;;23.40;56.20;;;;;;5034014;28;20042;-80
2022/06/18 02:57:55;;;;;;;2.08;1.83;;;23.40;56.70;;;;;;5056883;28;20033;-81
2022/06/18 03:00:21;;;;;;;2.20;1.70;;;23.30;56.00;;;;;;5045177;28;20511;-80
2022/06/18 03:02:47;;;;;;;2.67;2.00;;;23.30;56.00;;;;;;5041656;28;20044;-81
2022/06/18 03:05:23;;;;;;;2.35;2.03;;;23.30;56.10;;;;;;5022370;28;20029;-81
2022/06/18 03:07:48;;;;;;;3.08;2.10;;;23.20;56.90;;;;;;5046814;28;20515;-81
2022/06/18 03:12:59;;;;;;;2.50;1.90;;;23.10;56.30;;;;;;5033689;28;20041;-81
2022/06/18 03:15:25;;;;;;;3.40;1.97;;;23.10;56.40;;;;;;5049512;28;20025;-80
2022/06/18 03:17:52;;;;;;;2.35;1.80;;;23.00;56.50;;;;;;5059953;28;20463;-80
2022/06/18 03:20:21;;;;;;;3.25;2.22;;;23.00;56.70;;;;;;5021866;28;20414;-80
2022/06/18 03:22:48;;;;;;;2.97;1.92;;;22.90;57.00;;;;;;5050983;28;20108;-81
2022/06/18 03:25:14;;;;;;;3.70;1.90;;;22.90;56.80;;;;;;5050167;28;20067;-80
2022/06/18 03:27:40;;;;;;;3.15;1.70;;;22.90;56.80;;;;;;5040686;28;20502;-80
2022/06/18 03:30:06;;;;;;;3.20;1.70;;;22.80;57.00;;;;;;5050589;28;20485;-81
2022/06/18 03:32:32;;;;;;;2.00;1.80;;;22.80;57.10;;;;;;5046100;28;20258;-81
2022/06/18 03:34:58;;;;;;;2.97;2.15;;;22.80;57.30;;;;;;5037322;28;20477;-81
2022/06/18 03:37:23;;;;;;;3.50;1.87;;;22.70;57.40;;;;;;5027804;28;20297;-80
2022/06/18 03:39:49;;;;;;;2.67;2.00;;;22.70;57.40;;;;;;5054899;28;20033;-80
2022/06/18 03:42:15;;;;;;;2.87;1.87;;;22.70;57.70;;;;;;5040218;28;20158;-80
2022/06/18 03:44:41;;;;;;;2.67;2.13;;;22.60;57.70;;;;;;5056144;28;20311;-80
2022/06/18 03:47:07;;;;;;;2.25;1.70;;;22.60;57.80;;;;;;5046144;28;20058;-81
2022/06/18 03:49:34;;;;;;;2.70;2.10;;;22.60;57.90;;;;;;5059140;28;20048;-81
2022/06/18 03:52:02;;;;;;;3.63;2.00;;;22.50;58.10;;;;;;5029099;28;20446;-81
2022/06/18 03:54:28;;;;;;;3.25;2.22;;;22.50;58.40;;;;;;5048030;28;20051;-80
2022/06/18 03:56:54;;;;;;;3.08;1.98;;;22.50;58.30;;;;;;5049111;28;20047;-81
2022/06/18 03:59:21;;;;;;;3.70;2.00;;;22.40;58.40;;;;;;5041121;28;20217;-80
2022/06/18 04:01:47;;;;;;;2.75;2.00;;;22.40;58.50;;;;;;5045537;28;20039;-81
2022/06/18 04:04:14;;;;;;;3.03;1.85;;;22.30;58.50;;;;;;5041351;28;20372;-81
2022/06/18 04:06:41;;;;;;;5.10;2.00;;;22.40;58.80;;;;;;5055232;28;20590;-80
2022/06/18 04:09:08;;;;;;;2.67;2.10;;;22.40;58.90;;;;;;5026564;28;20036;-80
2022/06/18 04:11:34;;;;;;;2.80;2.30;;;22.30;59.00;;;;;;5057399;28;20470;-80
2022/06/18 04:13:59;;;;;;;2.53;2.10;;;22.30;59.00;;;;;;5039334;28;20071;-80
2022/06/18 04:16:25;;;;;;;3.33;2.17;;;22.30;59.20;;;;;;5046767;28;20153;-81
2022/06/18 04:18:52;;;;;;;2.47;2.10;;;22.30;59.40;;;;;;5052551;28;20298;-80
2022/06/18 04:21:18;;;;;;;4.18;2.20;;;22.30;59.50;;;;;;5045818;28;20033;-80
2022/06/18 04:23:44;;;;;;;3.53;2.40;;;22.30;59.50;;;;;;5033352;28;20028;-80
2022/06/18 04:26:12;;;;;;;3.35;2.30;;;22.30;59.60;;;;;;5039181;28;20181;-80
2022/06/18 04:28:38;;;;;;;2.67;2.03;;;22.30;59.80;;;;;;5054532;28;20036;-80
2022/06/18 04:31:05;;;;;;;3.53;1.97;;;22.30;59.80;;;;;;5033167;28;21322;-80
2022/06/18 04:33:31;;;;;;;3.28;2.30;;;22.30;59.90;;;;;;5049786;28;20036;-80
2022/06/18 04:35:58;;;;;;;3.53;2.38;;;22.30;60.60;;;;;;5038017;28;20036;-80
2022/06/18 04:38:25;;;;;;;3.20;2.05;;;22.30;60.00;;;;;;5068412;28;20035;-80
2022/06/18 04:40:51;;;;;;;3.05;2.00;;;22.30;60.00;;;;;;5028698;28;20040;-80
2022/06/18 04:43:17;;;;;;;3.00;2.13;;;22.30;60.20;;;;;;5045988;28;20662;-80
2022/06/18 04:45:43;;;;;;;2.95;2.30;;;22.30;60.30;;;;;;5042885;28;20029;-80
2022/06/18 04:48:09;;;;;;;4.07;2.38;;;22.30;60.30;;;;;;5044777;28;20243;-80
2022/06/18 04:50:37;;;;;;;4.00;2.30;;;22.40;60.60;;;;;;5041858;28;20119;-80
2022/06/18 04:53:04;;;;;;;3.75;2.35;;;22.40;61.10;;;;;;5052715;28;20045;-80
2022/06/18 04:55:30;;;;;;;2.60;2.13;;;22.40;61.10;;;;;;5017642;28;20061;-80
2022/06/18 04:57:56;;;;;;;2.93;2.13;;;22.40;61.10;;;;;;5058456;28;20071;-80
2022/06/18 05:00:22;;;;;;;3.08;2.25;;;22.40;61.30;;;;;;5048103;28;20056;-80
2022/06/18 05:02:47;;;;;;;3.05;2.17;;;22.50;61.40;;;;;;5042329;28;20549;-80
2022/06/18 05:05:19;;;;;;;2.77;2.33;;;22.50;61.60;;;;;;5033237;28;20025;-80
2022/06/18 05:07:45;;;;;;;2.65;2.05;;;22.50;62.20;;;;;;5067556;28;20028;-80
2022/06/18 05:10:11;;;;;;;4.15;2.20;;;22.60;62.00;;;;;;5035597;28;20515;-80
2022/06/18 05:12:37;;;;;;;3.23;2.10;;;22.60;62.10;;;;;;5046866;28;20040;-80
2022/06/18 05:15:08;;;;;;;3.33;2.50;;;22.70;62.10;;;;;;5041471;28;20341;-80
2022/06/18 05:17:36;;;;;;;3.08;2.40;;;22.70;62.40;;;;;;5044111;28;20128;-80
2022/06/18 05:20:03;;;;;;;3.97;2.38;;;22.80;62.70;;;;;;5028127;28;21246;-80
2022/06/18 05:22:29;;;;;;;3.08;2.28;;;22.80;62.60;;;;;;5053308;28;20033;-80
2022/06/18 05:24:56;;;;;;;3.40;2.50;;;22.90;62.30;;;;;;5037855;28;21190;-80
2022/06/18 05:27:26;;;;;;;4.00;2.70;;;23.00;62.30;;;;;;5039423;28;20404;-80
2022/06/18 05:29:52;;;;;;;4.43;2.42;;;23.00;62.50;;;;;;5028088;28;20636;-80
2022/06/18 05:32:19;;;;;;;3.00;2.17;;;23.10;62.70;;;;;;5041211;28;20073;-80
2022/06/18 05:34:45;;;;;;;2.93;2.20;;;23.20;62.80;;;;;;5046567;28;20041;-81
2022/06/18 05:37:17;;;;;;;4.10;2.35;;;23.30;62.60;;;;;;5039619;28;20035;-80
2022/06/18 05:39:43;;;;;;;2.55;2.20;;;23.30;62.80;;;;;;5052378;28;20090;-80
2022/06/18 05:42:09;;;;;;;3.13;2.33;;;23.40;62.30;;;;;;5022361;28;20040;-80
2022/06/18 05:44:35;;;;;;;3.28;2.20;;;23.50;62.30;;;;;;5050390;28;20302;-80
2022/06/18 05:47:02;;;;;;;2.85;2.00;;;23.60;62.20;;;;;;5032533;28;20052;-80
2022/06/18 05:49:28;;;;;;;3.05;2.25;;;23.70;62.20;;;;;;5043837;28;20108;-81
2022/06/18 05:51:54;;;;;;;5.57;2.30;;;23.80;62.20;;;;;;5039566;28;20135;-81
2022/06/18 05:54:19;;;;;;;3.10;2.20;;;23.80;62.10;;;;;;5044315;28;20043;-81
2022/06/18 05:56:45;;;;;;;3.47;2.27;;;23.90;61.90;;;;;;5031332;28;20036;-81
2022/06/18 05:59:11;;;;;;;2.95;2.38;;;24.00;61.90;;;;;;5044280;28;20098;-81
2022/06/18 06:01:37;;;;;;;4.07;2.20;;;24.10;62.00;;;;;;5044096;28;20064;-81
2022/06/18 06:04:03;;;;;;;2.85;2.25;;;24.20;62.10;;;;;;5038076;28;20045;-80
2022/06/18 06:06:29;;;;;;;2.75;2.20;;;24.30;62.10;;;;;;5040700;28;20067;-81
2022/06/18 06:08:55;;;;;;;4.67;2.20;;;24.30;62.10;;;;;;5039396;28;20032;-81
2022/06/18 06:11:29;;;;;;;3.38;2.10;;;24.50;62.00;;;;;;5056449;28;20033;-81
2022/06/18 06:14:00;;;;;;;3.47;2.30;;;24.50;61.80;;;;;;5036268;28;20047;-81
2022/06/18 06:16:25;;;;;;;3.63;2.30;;;24.70;62.00;;;;;;5051425;28;20028;-81
2022/06/18 06:18:51;;;;;;;2.88;2.28;;;24.70;61.50;;;;;;5028721;28;20496;-81
2022/06/18 06:21:17;;;;;;;2.85;2.10;;;24.80;61.60;;;;;;5049909;28;20029;-81
2022/06/18 06:23:42;;;;;;;2.93;2.20;;;25.00;61.50;;;;;;5025233;28;20266;-81
2022/06/18 06:26:37;;;;;;;3.73;2.00;;;25.00;61.40;;;;;;5057271;28;20064;-80
2022/06/18 06:29:03;;;;;;;3.72;2.15;;;25.10;61.40;;;;;;5024169;28;20041;-81
2022/06/18 06:31:29;;;;;;;6.30;2.35;;;25.30;61.20;;;;;;5051503;28;20057;-81
2022/06/18 06:33:54;;;;;;;3.70;2.27;;;25.40;61.00;;;;;;5043500;28;20037;-81
2022/06/18 06:36:20;;;;;;;4.43;2.50;;;25.50;60.90;;;;;;5053397;28;21052;-81
2022/06/18 06:38:46;;;;;;;4.43;2.37;;;25.60;60.80;;;;;;5041184;28;20121;-81
2022/06/18 06:41:20;;;;;;;6.00;2.58;;;25.70;60.50;;;;;;5048266;28;20029;-81
2022/06/18 06:43:45;;;;;;;2.70;1.70;;;25.80;60.40;;;;;;5033925;28;20124;-80
2022/06/18 06:46:12;;;;;;;3.65;2.08;;;25.80;60.30;;;;;;5055171;28;20096;-80
2022/06/18 06:48:39;;;;;;;4.63;2.15;;;25.90;60.20;;;;;;5028580;28;20059;-81
2022/06/18 06:51:17;;;;;;;3.58;2.30;;;26.00;60.80;;;;;;5056015;28;20040;-81
2022/06/18 06:53:43;;;;;;;5.73;2.20;;;26.10;59.80;;;;;;5044384;28;20567;-80
2022/06/18 06:58:58;;;;;;;3.25;2.20;;;26.30;59.50;;;;;;5035193;28;20045;-81
2022/06/18 07:01:24;;;;;;;3.50;2.08;;;26.40;59.30;;;;;;5044154;28;20063;-80
2022/06/18 07:03:50;;;;;;;3.03;2.10;;;26.50;59.30;;;;;;5053508;28;20052;-81
2022/06/18 07:06:16;;;;;;;3.30;2.17;;;26.60;59.10;;;;;;5040772;28;20056;-81
2022/06/18 07:08:46;;;;;;;3.33;2.05;;;26.70;58.80;;;;;;5027629;28;20144;-80
2022/06/18 07:11:13;;;;;;;5.00;2.33;;;26.80;58.10;;;;;;5056190;28;20104;-80
2022/06/18 07:13:39;;;;;;;3.20;2.10;;;26.80;58.10;;;;;;5052525;28;20335;-81
2022/06/18 07:16:05;;;;;;;2.87;2.03;;;26.90;57.90;;;;;;5032275;28;20028;-81
2022/06/18 07:18:35;;;;;;;4.13;1.98;;;27.00;57.90;;;;;;5052158;28;20093;-80
2022/06/18 07:21:02;;;;;;;4.45;2.00;;;27.10;57.70;;;;;;5040989;28;20052;-81
2022/06/18 07:23:28;;;;;;;4.53;2.10;;;27.20;57.60;;;;;;5051123;28;20139;-81
2022/06/18 07:25:54;;;;;;;4.80;2.33;;;27.30;57.50;;;;;;5038915;28;20544;-80
2022/06/18 07:28:20;;;;;;;3.73;2.27;;;27.50;57.30;;;;;;5053624;28;20081;-81
2022/06/18 07:30:46;;;;;;;3.75;2.35;;;27.50;57.00;;;;;;5028650;28;20024;-81
2022/06/18 07:33:21;;;;;;;4.97;2.20;;;27.70;56.90;;;;;;5058515;28;20024;-81
2022/06/18 07:35:46;;;;;;;4.07;2.25;;;27.70;56.20;;;;;;5045624;28;20332;-81
2022/06/18 07:38:12;;;;;;;2.80;2.10;;;27.90;56.60;;;;;;5067120;28;20024;-81
2022/06/18 07:40:49;;;;;;;3.00;2.10;;;28.00;56.70;;;;;;5037575;28;21860;-80
2022/06/18 07:43:20;;;;;;;3.57;2.07;;;28.20;56.10;;;;;;5041154;28;20036;-81
2022/06/18 07:45:46;;;;;;;4.38;2.42;;;28.40;56.70;;;;;;5036426;28;20029;-81
2022/06/18 07:48:13;;;;;;;4.80;2.42;;;28.60;57.10;;;;;;5038224;28;20594;-81
2022/06/18 07:50:43;;;;;;;4.32;2.13;;;28.90;56.80;;;;;;5054302;28;20033;-81
2022/06/18 07:53:15;;;;;;;3.22;2.00;;;29.20;56.50;;;;;;5046255;28;20148;-81
2022/06/18 07:55:40;;;;;;;3.83;2.07;;;29.50;56.00;;;;;;5049156;28;20105;-81
2022/06/18 07:58:06;;;;;;;4.88;2.20;;;29.70;56.10;;;;;;5037601;28;20040;-81
2022/06/18 08:00:31;;;;;;;4.77;2.00;;;30.00;55.90;;;;;;5033988;28;20325;-79
2022/06/18 08:02:58;;;;;;;5.13;1.95;;;30.20;55.60;;;;;;5051239;28;20602;-81
2022/06/18 08:05:27;;;;;;;3.10;2.00;;;30.40;54.90;;;;;;5052794;28;20369;-81
2022/06/18 08:07:53;;;;;;;4.72;2.22;;;30.70;54.40;;;;;;5050385;28;20037;-81
2022/06/18 08:10:19;;;;;;;5.97;2.20;;;30.90;54.30;;;;;;5053334;28;20069;-80
2022/06/18 08:12:45;;;;;;;4.37;2.00;;;31.20;54.10;;;;;;5046484;28;20040;-81
2022/06/18 08:15:11;;;;;;;3.33;2.00;;;31.50;53.70;;;;;;5030575;28;20790;-81
2022/06/18 08:17:37;;;;;;;3.33;2.10;;;31.70;53.00;;;;;;5054525;28;20060;-81
2022/06/18 08:20:04;;;;;;;4.50;2.07;;;32.00;52.60;;;;;;5037936;28;20053;-81
2022/06/18 08:22:30;;;;;;;4.30;1.85;;;32.20;52.10;;;;;;5047807;28;20029;-82
2022/06/18 08:24:57;;;;;;;3.35;2.20;;;32.50;52.10;;;;;;5059613;28;20033;-81
2022/06/18 08:27:23;;;;;;;3.33;2.10;;;32.70;51.60;;;;;;5039938;28;20136;-81
2022/06/18 08:29:49;;;;;;;3.23;2.10;;;33.00;50.90;;;;;;5045803;28;20116;-80
2022/06/18 08:32:15;;;;;;;2.90;1.85;;;33.20;50.50;;;;;;5040270;28;20504;-81
2022/06/18 08:34:40;;;;;;;3.90;2.17;;;33.50;50.40;;;;;;5024932;28;20045;-76
2022/06/18 08:37:08;;;;;;;3.42;2.20;;;33.70;50.00;;;;;;5027913;28;20631;-75
2022/06/18 08:39:34;;;;;;;3.20;2.30;;;34.00;49.60;;;;;;5032247;28;20324;-76
2022/06/18 08:42:23;;;;;;;4.40;2.20;;;34.20;49.30;;;;;;5029948;28;20039;-76
2022/06/18 08:45:00;;;;;;;3.42;2.55;;;34.50;47.10;;;;;;5022486;28;20049;-76
2022/06/18 08:48:03;;;;;;;3.90;2.28;;;34.70;47.70;;;;;;5021620;28;20473;-76
2022/06/18 08:50:32;;;;;;;3.88;2.33;;;35.00;46.70;;;;;;5025621;28;20051;-76
2022/06/18 08:53:37;;;;;;;4.72;2.80;;;35.30;47.70;;;;;;5030526;28;20079;-75
2022/06/18 08:56:04;;;;;;;3.23;2.10;;;35.40;45.60;;;;;;5027084;28;20319;-76
2022/06/18 08:59:12;;;;;;;3.30;2.22;;;35.70;46.20;;;;;;5024676;28;20040;-76
2022/06/18 09:01:44;;;;;;;4.65;2.67;;;35.90;45.10;;;;;;5032214;28;20029;-75
2022/06/18 09:04:48;;;;;;;3.85;2.60;;;36.10;44.90;;;;;;5034061;28;20255;-77
2022/06/18 09:07:22;;;;;;;4.30;2.35;;;36.30;43.90;;;;;;5026848;28;20017;-76
2022/06/18 09:09:54;;;;;;;4.43;2.60;;;36.50;43.00;;;;;;5050799;28;20477;-76
2022/06/18 09:12:34;;;;;;;5.03;2.47;;;36.60;42.90;;;;;;5022606;28;20035;-76
2022/06/18 09:15:20;;;;;;;4.32;2.35;;;36.70;41.60;;;;;;5030096;28;20165;-76
2022/06/18 09:17:58;;;;;;;3.15;2.20;;;36.90;41.80;;;;;;5022201;28;20044;-76
2022/06/18 09:20:43;;;;;;;4.57;2.38;;;37.00;41.50;;;;;;5045987;28;20799;-76
2022/06/18 09:23:30;;;;;;;3.73;2.57;;;37.20;40.90;;;;;;5041082;28;21266;-76
2022/06/18 09:25:59;;;;;;;4.47;2.72;;;37.50;40.60;;;;;;5036899;28;20033;-76
2022/06/18 09:28:34;;;;;;;5.03;2.53;;;37.70;41.50;;;;;;5044386;28;20059;-76
2022/06/18 09:31:05;;;;;;;3.65;2.67;;;37.90;40.90;;;;;;5029326;28;20076;-76
2022/06/18 09:33:40;;;;;;;3.85;2.70;;;38.10;40.70;;;;;;5030200;28;20136;-76
2022/06/18 09:36:33;;;;;;;5.03;2.60;;;38.30;39.40;;;;;;5035463;28;20262;-76
2022/06/18 09:39:08;;;;;;;4.38;2.75;;;38.50;39.30;;;;;;5044915;28;20405;-76
2022/06/18 09:41:47;;;;;;;5.80;2.55;;;38.80;39.30;;;;;;5044208;28;20037;-76
2022/06/18 09:44:43;;;;;;;4.57;3.05;;;38.90;38.60;;;;;;5040653;28;20040;-76
2022/06/18 09:47:48;;;;;;;4.80;2.85;;;39.10;38.00;;;;;;5007496;28;20475;-76
2022/06/18 09:50:43;;;;;;;4.77;3.03;;;39.30;37.90;;;;;;5007728;28;20060;-76
2022/06/18 09:53:22;;;;;;;3.42;2.67;;;39.40;37.10;;;;;;5047882;28;20600;-75
2022/06/18 09:55:55;;;;;;;5.18;2.65;;;39.50;36.20;;;;;;5029606;28;20457;-76
2022/06/18 09:58:26;;;;;;;4.30;2.90;;;39.60;36.30;;;;;;5033458;28;20274;-76
2022/06/18 10:00:54;;;;;;;4.05;2.85;;;39.80;36.40;;;;;;5029594;28;20040;-76
2022/06/18 10:08:57;;;;;;;4.07;2.65;;;40.30;36.10;;;;;;5028976;28;20116;-77
2022/06/18 10:11:24;;;;;;;4.70;3.35;;;40.50;35.90;;;;;;5041149;28;20048;-77
2022/06/18 10:14:00;;;;;;;4.80;2.92;;;40.80;35.10;;;;;;5054819;28;20024;-77
2022/06/18 10:16:47;;;;;;;4.20;2.30;;;40.90;33.50;;;;;;5007000;28;20222;-76
2022/06/18 10:19:45;;;;;;;4.57;2.65;;;41.00;33.00;;;;;;5020361;28;20095;-76
2022/06/18 10:23:09;;;;;;;3.92;2.88;;;41.10;32.70;;;;;;5035680;28;20055;-76
2022/06/18 10:25:42;;;;;;;3.20;2.65;;;41.20;32.40;;;;;;5031856;28;20021;-77
2022/06/18 10:28:11;;;;;;;4.55;3.35;;;41.30;33.70;;;;;;5048612;28;20036;-77
2022/06/18 10:30:55;;;;;;;5.17;3.33;;;41.40;33.10;;;;;;5039442;28;20416;-77
2022/06/18 10:33:49;;;;;;;5.28;3.10;;;41.60;31.60;;;;;;5020989;28;20701;-76
2022/06/18 10:36:41;;;;;;;4.50;3.08;;;41.80;31.80;;;;;;5025481;28;21160;-76
2022/06/18 10:39:13;;;;;;;3.95;3.30;;;41.80;32.40;;;;;;5035066;28;20037;-76
2022/06/18 10:42:00;;;;;;;3.88;3.38;;;42.00;31.10;;;;;;5046485;28;20040;-76
2022/06/18 10:44:29;;;;;;;4.43;2.90;;;42.10;30.60;;;;;;5030637;28;22728;-76
2022/06/18 10:47:01;;;;;;;4.20;2.63;;;42.20;30.80;;;;;;5036657;28;20043;-77
2022/06/18 10:49:27;;;;;;;4.93;2.78;;;42.30;31.30;;;;;;5030483;28;20314;-77
2022/06/18 10:51:53;;;;;;;3.90;3.40;;;42.50;31.30;;;;;;5024710;28;20481;-77
2022/06/18 10:54:29;;;;;;;5.00;3.10;;;42.60;31.10;;;;;;5025273;28;20050;-76
2022/06/18 10:56:58;;;;;;;4.82;3.30;;;42.60;29.90;;;;;;5041131;28;20489;-77
2022/06/18 10:59:30;;;;;;;5.32;2.95;;;42.80;30.70;;;;;;5041872;28;20352;-77
2022/06/18 11:02:00;;;;;;;4.47;3.35;;;42.90;30.10;;;;;;5038767;28;20503;-77
2022/06/18 11:04:29;;;;;;;3.93;3.00;;;43.10;30.20;;;;;;5028544;28;20139;-77
2022/06/18 11:07:02;;;;;;;5.35;3.25;;;43.10;29.80;;;;;;5029331;28;20149;-77
2022/06/18 11:09:31;;;;;;;3.95;3.33;;;43.20;29.70;;;;;;5036348;28;20145;-77
2022/06/18 11:11:59;;;;;;;6.30;2.90;;;43.20;29.50;;;;;;5055914;28;20089;-77
2022/06/18 11:14:26;;;;;;;3.70;3.15;;;43.40;30.00;;;;;;5036610;28;20653;-77
2022/06/18 11:16:55;;;;;;;5.73;3.17;;;43.40;29.70;;;;;;5058735;28;20504;-76
2022/06/18 11:19:28;;;;;;;5.00;3.45;;;43.60;29.40;;;;;;5006452;28;21065;-76
2022/06/18 11:21:54;;;;;;;4.35;3.72;;;43.70;28.60;;;;;;5004219;28;20266;-76
2022/06/18 11:24:35;;;;;;;4.78;3.13;;;43.80;29.20;;;;;;5048820;28;20025;-77
2022/06/18 11:27:05;;;;;;;5.00;3.27;;;43.90;28.20;;;;;;5037911;28;20059;-77
2022/06/18 11:29:42;;;;;;;6.03;3.75;;;44.00;28.60;;;;;;5035257;28;20045;-77
2022/06/18 11:32:11;;;;;;;5.03;3.38;;;44.20;28.60;;;;;;5036142;28;20254;-76
2022/06/18 11:34:39;;;;;;;4.60;2.95;;;44.40;28.50;;;;;;5014905;28;20469;-76
2022/06/18 11:37:23;;;;;;;4.82;4.00;;;44.50;28.30;;;;;;5029526;28;20169;-77
2022/06/18 11:40:15;;;;;;;3.93;2.90;;;44.60;27.70;;;;;;5043303;28;20413;-77
2022/06/18 11:42:47;;;;;;;4.25;2.78;;;44.70;27.80;;;;;;5037763;28;20505;-76
2022/06/18 11:45:30;;;;;;;5.47;3.58;;;44.80;28.00;;;;;;5032408;28;20415;-77
2022/06/18 11:48:05;;;;;;;4.03;3.10;;;44.80;27.30;;;;;;5028563;28;20040;-77
2022/06/18 11:50:45;;;;;;;4.72;4.07;;;44.80;27.40;;;;;;5018323;28;20048;-77
2022/06/18 11:53:45;;;;;;;5.13;3.83;;;44.80;27.40;;;;;;5007355;28;20126;-76
2022/06/18 11:56:39;;;;;;;4.82;3.30;;;44.80;27.40;;;;;;5028027;28;20128;-77
2022/06/18 11:59:27;;;;;;;4.05;3.67;;;45.00;27.20;;;;;;5032921;28;20036;-76
2022/06/18 12:02:02;;;;;;;4.75;3.30;;;45.00;26.90;;;;;;5043038;28;20121;-76
2022/06/18 12:04:41;;;;;;;4.93;3.75;;;45.00;26.50;;;;;;5035652;28;20044;-78
2022/06/18 12:07:24;;;;;;;4.13;3.03;;;44.90;26.70;;;;;;5026322;28;20063;-77
2022/06/18 12:09:50;;;;;;;4.00;3.00;;;44.80;26.70;;;;;;5040748;28;20045;-77
2022/06/18 12:12:44;;;;;;;4.30;3.28;;;44.70;27.20;;;;;;5031883;28;20033;-77
2022/06/18 12:15:20;;;;;;;4.90;3.47;;;44.70;26.80;;;;;;5021093;28;20100;-76
2022/06/18 12:18:15;;;;;;;3.92;3.25;;;44.80;27.30;;;;;;5040914;28;20036;-77
2022/06/18 12:20:49;;;;;;;5.30;3.30;;;44.80;27.10;;;;;;4985288;28;20173;-77
2022/06/18 12:23:31;;;;;;;3.95;2.80;;;44.80;26.70;;;;;;5022800;28;20051;-77
2022/06/18 12:26:01;;;;;;;3.70;3.13;;;44.80;26.70;;;;;;5046971;28;20029;-77
2022/06/18 12:28:40;;;;;;;4.43;3.42;;;44.80;27.00;;;;;;5030171;28;20036;-77
2022/06/18 12:31:29;;;;;;;4.30;3.38;;;44.80;27.00;;;;;;5033542;28;20040;-77
2022/06/18 12:34:07;;;;;;;5.87;3.13;;;44.80;26.70;;;;;;5039818;28;20041;-77
2022/06/18 12:36:54;;;;;;;4.53;3.28;;;44.80;27.00;;;;;;5014298;28;20596;-77
2022/06/18 12:40:00;;;;;;;4.15;3.38;;;44.80;26.80;;;;;;5027439;28;20543;-77
2022/06/18 12:42:30;;;;;;;4.40;3.53;;;44.90;26.70;;;;;;5034669;28;20184;-77
2022/06/18 12:45:13;;;;;;;4.25;3.30;;;45.00;26.60;;;;;;5045975;28;20086;-77
2022/06/18 12:48:17;;;;;;;4.43;3.03;;;45.10;26.70;;;;;;5018695;28;20851;-77
2022/06/18 12:51:04;;;;;;;5.55;3.22;;;45.20;26.60;;;;;;5042475;28;20024;-77
2022/06/18 12:53:38;;;;;;;3.50;3.20;;;45.20;26.60;;;;;;5011538;28;20041;-76
2022/06/18 12:56:21;;;;;;;4.40;3.00;;;45.20;26.80;;;;;;5026152;28;20050;-76
2022/06/18 12:58:54;;;;;;;3.45;3.15;;;45.30;26.80;;;;;;5041780;28;20037;-77
2022/06/18 13:01:31;;;;;;;3.47;3.03;;;45.40;26.90;;;;;;5050698;28;20041;-76
2022/06/18 13:04:30;;;;;;;4.55;3.22;;;45.40;26.70;;;;;;5019007;28;20037;-77
2022/06/18 13:07:25;;;;;;;4.60;2.92;;;45.40;26.40;;;;;;5015978;28;20388;-77
2022/06/18 13:10:01;;;;;;;4.07;2.95;;;45.40;26.30;;;;;;5020445;28;20035;-76
2022/06/18 13:12:34;;;;;;;3.95;3.55;;;45.40;26.10;;;;;;5030477;28;20041;-76
2022/06/18 13:15:37;;;;;;;4.17;3.30;;;45.40;26.00;;;;;;5043968;28;20064;-77
2022/06/18 13:18:09;;;;;;;3.78;3.35;;;45.20;26.60;;;;;;5019800;28;20266;-77
2022/06/18 13:20:42;;;;;;;4.22;3.20;;;45.20;26.50;;;;;;5048633;28;20041;-77
2022/06/18 13:29:01;;;;;;;3.60;3.30;;;45.00;26.60;;;;;;5034193;28;20509;-77
2022/06/18 13:31:46;;;;;;;5.47;3.08;;;45.00;26.90;;;;;;5050490;28;20087;-77
2022/06/18 13:34:37;;;;;;;5.50;3.55;;;45.00;26.00;;;;;;5020974;28;20672;-77